createdAt,value
2022-12-03T00:00:12.086Z,66.20
2022-12-03T00:01:17.004Z,71.13
2022-12-03T00:01:49.286Z,80.70
2022-12-03T00:02:21.789Z,74.85
2022-12-03T00:02:54.429Z,78.35
2022-12-03T00:03:27.007Z,72.18
2022-12-03T00:03:59.574Z,73.57
2022-12-03T00:04:32.047Z,79.78
2022-12-03T00:05:04.819Z,83.05
2022-12-03T00:05:37.150Z,80.40
2022-12-03T00:06:09.412Z,86.93
2022-12-03T00:06:41.690Z,78.22
2022-12-03T00:07:13.993Z,84.25
2022-12-03T00:07:46.557Z,73.95
2022-12-03T00:08:18.975Z,72.10
2022-12-03T00:08:51.398Z,70.50
2022-12-03T00:09:23.895Z,78.90
2022-12-03T00:09:56.218Z,71.05
2022-12-03T00:10:28.786Z,69.35
2022-12-03T00:11:01.089Z,68.70
2022-12-03T00:11:33.613Z,70.07
2022-12-03T00:12:05.983Z,67.13
2022-12-03T00:12:38.331Z,69.43
2022-12-03T00:13:10.703Z,69.28
2022-12-03T00:13:43.164Z,72.97
2022-12-03T00:14:15.474Z,81.18
2022-12-03T00:14:47.799Z,74.18
2022-12-03T00:15:20.173Z,85.22
2022-12-03T00:15:52.782Z,96.25
2022-12-03T00:16:25.257Z,86.65
2022-12-03T00:16:58.040Z,72.43
2022-12-03T00:17:30.546Z,70.93
2022-12-03T00:18:03.059Z,73.40
2022-12-03T00:18:35.526Z,64.55
2022-12-03T00:19:07.944Z,68.78
2022-12-03T00:19:40.249Z,62.90
2022-12-03T00:20:18.106Z,66.47
2022-12-03T00:20:50.451Z,72.80
2022-12-03T00:21:24.644Z,63.92
2022-12-03T00:21:57.621Z,64.63
2022-12-03T00:22:30.142Z,65.68
2022-12-03T00:23:02.483Z,64.25
2022-12-03T00:23:40.185Z,65.88
2022-12-03T00:24:14.240Z,67.38
2022-12-03T00:24:46.537Z,63.33
2022-12-03T00:25:18.890Z,65.32
2022-12-03T00:25:51.191Z,65.57
2022-12-03T00:26:23.545Z,66.15
2022-12-03T00:26:57.236Z,65.95
2022-12-03T00:27:29.735Z,58.65
2022-12-03T00:28:02.525Z,69.47
2022-12-03T00:28:35.262Z,61.80
2022-12-03T00:29:07.811Z,65.30
2022-12-03T00:29:40.106Z,67.88
2022-12-03T00:30:12.666Z,59.85
2022-12-03T00:30:45.224Z,54.72
2022-12-03T00:31:17.880Z,66.85
2022-12-03T00:31:50.269Z,63.88
2022-12-03T00:32:23.011Z,62.15
2022-12-03T00:32:55.298Z,58.17
2022-12-03T00:33:27.579Z,61.88
2022-12-03T00:33:59.945Z,58.65
2022-12-03T00:34:32.204Z,57.67
2022-12-03T00:35:04.725Z,55.10
2022-12-03T00:35:37.045Z,60.67
2022-12-03T00:36:09.483Z,59.53
2022-12-03T00:36:42.175Z,57.78
2022-12-03T00:37:14.657Z,57.75
2022-12-03T00:37:46.953Z,57.60
2022-12-03T00:38:19.663Z,62.33
2022-12-03T00:38:52.004Z,54.78
2022-12-03T00:39:24.356Z,60.50
2022-12-03T00:39:57.597Z,56.40
2022-12-03T00:40:29.922Z,61.80
2022-12-03T00:41:02.198Z,56.20
2022-12-03T00:41:34.553Z,53.85
2022-12-03T00:42:06.842Z,51.63
2022-12-03T00:42:39.287Z,57.28
2022-12-03T00:43:11.765Z,55.72
2022-12-03T00:43:44.057Z,52.13
2022-12-03T00:44:17.675Z,55.90
2022-12-03T00:44:50.043Z,61.42
2022-12-03T00:45:22.546Z,61.33
2022-12-03T00:45:54.847Z,57.78
2022-12-03T00:46:27.273Z,54.65
2022-12-03T00:47:00.981Z,55.13
2022-12-03T00:47:33.613Z,58.17
2022-12-03T00:48:05.986Z,63.67
2022-12-03T00:48:38.544Z,62.85
2022-12-03T00:49:11.023Z,56.80
2022-12-03T00:49:44.221Z,60.55
2022-12-03T00:50:16.566Z,64.15
2022-12-03T00:50:49.292Z,61.72
2022-12-03T00:51:21.879Z,58.80
2022-12-03T00:51:54.427Z,63.58
2022-12-03T00:52:26.991Z,57.55
2022-12-03T00:52:59.359Z,63.40
2022-12-03T00:53:31.724Z,58.00
2022-12-03T00:54:04.085Z,67.10
2022-12-03T00:54:36.540Z,61.30
2022-12-03T00:55:09.492Z,66.20
2022-12-03T00:55:41.756Z,60.28
2022-12-03T00:56:14.028Z,64.78
2022-12-03T00:56:46.440Z,65.20
2022-12-03T00:57:18.899Z,60.13
2022-12-03T00:57:51.356Z,64.05
2022-12-03T00:58:23.767Z,66.80
2022-12-03T00:58:56.205Z,69.38
2022-12-03T00:59:28.637Z,69.90
2022-12-03T01:00:00.960Z,61.78
2022-12-03T01:00:33.227Z,70.38
2022-12-03T01:01:05.676Z,85.57
2022-12-03T01:01:37.978Z,77.47
2022-12-03T01:02:10.629Z,81.05
2022-12-03T01:02:43.151Z,80.55
2022-12-03T01:03:15.415Z,76.00
2022-12-03T01:03:47.698Z,81.65
2022-12-03T01:04:20.742Z,74.90
2022-12-03T01:04:53.721Z,70.13
2022-12-03T01:05:26.318Z,71.63
2022-12-03T01:05:58.597Z,70.85
2022-12-03T01:06:31.121Z,62.60
2022-12-03T01:07:03.515Z,62.85
2022-12-03T01:07:36.535Z,66.90
2022-12-03T01:08:09.113Z,73.65
2022-12-03T01:08:41.630Z,72.80
2022-12-03T01:09:13.909Z,62.17
2022-12-03T01:09:46.540Z,69.75
2022-12-03T01:10:19.126Z,75.13
2022-12-03T01:10:51.420Z,78.63
2022-12-03T01:11:38.783Z,81.38
2022-12-03T01:12:12.289Z,89.80
2022-12-03T01:12:44.671Z,80.10
2022-12-03T01:13:16.956Z,77.57
2022-12-03T01:13:49.359Z,75.82
2022-12-03T01:14:21.896Z,84.60
2022-12-03T01:14:54.668Z,92.13
2022-12-03T01:15:27.342Z,95.50
2022-12-03T01:15:59.955Z,93.60
2022-12-03T01:16:32.372Z,74.28
2022-12-03T01:17:04.978Z,72.72
2022-12-03T01:17:37.714Z,75.88
2022-12-03T01:18:09.914Z,76.03
2022-12-03T01:18:42.202Z,75.10
2022-12-03T01:19:17.658Z,73.22
2022-12-03T01:19:52.658Z,79.63
2022-12-03T01:20:25.128Z,78.03
2022-12-03T01:20:57.619Z,82.38
2022-12-03T01:21:29.913Z,120.47
2022-12-03T01:22:02.555Z,124.20
2022-12-03T01:22:35.149Z,109.60
2022-12-03T01:23:07.475Z,98.90
2022-12-03T01:23:39.899Z,88.88
2022-12-03T01:24:12.486Z,76.35
2022-12-03T01:24:44.792Z,73.40
2022-12-03T01:25:17.141Z,80.20
2022-12-03T01:25:49.599Z,77.85
2022-12-03T01:26:21.926Z,78.72
2022-12-03T01:26:56.250Z,77.88
2022-12-03T01:27:28.508Z,65.93
2022-12-03T01:28:01.170Z,79.03
2022-12-03T01:28:33.976Z,78.28
2022-12-03T01:29:06.769Z,90.45
2022-12-03T01:29:39.080Z,83.50
2022-12-03T01:30:12.130Z,81.07
2022-12-03T01:31:03.349Z,72.72
2022-12-03T01:31:54.259Z,66.18
2022-12-03T01:32:26.817Z,61.67
2022-12-03T01:32:59.868Z,61.97
2022-12-03T01:33:32.321Z,71.10
2022-12-03T01:34:04.780Z,69.78
2022-12-03T01:34:37.044Z,70.68
2022-12-03T01:35:09.577Z,61.53
2022-12-03T01:35:41.932Z,73.70
2022-12-03T01:36:14.347Z,72.60
2022-12-03T01:36:46.759Z,69.22
2022-12-03T01:37:19.659Z,69.85
2022-12-03T01:37:52.109Z,74.93
2022-12-03T01:38:24.418Z,69.00
2022-12-03T01:38:56.849Z,78.50
2022-12-03T01:39:29.054Z,68.70
2022-12-03T01:40:01.234Z,73.05
2022-12-03T01:40:33.586Z,75.35
2022-12-03T01:41:11.352Z,69.15
2022-12-03T01:41:44.832Z,74.75
2022-12-03T01:42:37.544Z,72.63
2022-12-03T01:43:10.104Z,75.97
2022-12-03T01:43:42.593Z,71.97
2022-12-03T01:44:21.247Z,70.20
2022-12-03T01:44:56.176Z,65.97
2022-12-03T01:45:28.673Z,64.00
2022-12-03T01:46:01.309Z,69.72
2022-12-03T01:46:40.567Z,69.05
2022-12-03T01:47:14.866Z,66.07
2022-12-03T01:47:47.436Z,65.55
2022-12-03T01:48:19.723Z,74.35
2022-12-03T01:48:53.329Z,64.15
2022-12-03T01:49:27.557Z,69.57
2022-12-03T01:50:01.574Z,63.72
2022-12-03T01:50:34.518Z,64.60
2022-12-03T01:51:07.443Z,68.95
2022-12-03T01:51:39.991Z,65.47
2022-12-03T01:52:19.488Z,71.80
2022-12-03T01:52:53.108Z,69.00
2022-12-03T01:53:25.413Z,68.25
2022-12-03T01:53:59.022Z,70.72
2022-12-03T01:54:36.709Z,80.38
2022-12-03T01:55:13.845Z,72.50
2022-12-03T01:55:48.828Z,76.97
2022-12-03T01:56:21.623Z,67.95
2022-12-03T01:56:54.859Z,69.40
2022-12-03T01:57:28.721Z,66.88
2022-12-03T01:58:02.112Z,74.30
2022-12-03T01:58:34.687Z,70.22
2022-12-03T01:59:07.034Z,68.50
2022-12-03T01:59:39.735Z,76.95
2022-12-03T02:00:14.793Z,67.70
2022-12-03T02:00:47.226Z,65.90
2022-12-03T02:01:19.582Z,63.28
2022-12-03T02:01:51.964Z,57.03
2022-12-03T02:02:27.301Z,62.65
2022-12-03T02:03:04.260Z,54.05
2022-12-03T02:03:36.655Z,63.38
2022-12-03T02:04:11.500Z,65.30
2022-12-03T02:04:43.949Z,67.15
2022-12-03T02:05:20.611Z,71.60
2022-12-03T02:05:53.342Z,57.50
2022-12-03T02:06:28.145Z,62.38
2022-12-03T02:07:16.254Z,61.60
2022-12-03T02:07:48.724Z,45.17
2022-12-03T02:08:31.293Z,61.38
2022-12-03T02:09:03.707Z,59.45
2022-12-03T02:09:36.232Z,55.08
2022-12-03T02:10:08.720Z,47.08
2022-12-03T02:10:41.214Z,53.50
2022-12-03T02:11:16.110Z,55.47
2022-12-03T02:11:49.951Z,54.45
2022-12-03T02:12:29.318Z,54.33
2022-12-03T02:13:04.045Z,53.85
2022-12-03T02:13:36.551Z,57.53
2022-12-03T02:14:14.109Z,56.22
2022-12-03T02:14:46.703Z,59.53
2022-12-03T02:15:19.022Z,59.67
2022-12-03T02:15:51.851Z,57.10
2022-12-03T02:16:24.420Z,46.25
2022-12-03T02:16:56.945Z,51.50
2022-12-03T02:17:29.466Z,58.38
2022-12-03T02:18:02.057Z,62.45
2022-12-03T02:18:34.417Z,52.92
2022-12-03T02:19:10.917Z,44.78
2022-12-03T02:19:43.217Z,53.33
2022-12-03T02:20:15.747Z,46.13
2022-12-03T02:20:59.044Z,50.97
2022-12-03T02:21:31.312Z,56.03
2022-12-03T02:22:12.444Z,44.85
2022-12-03T02:22:48.705Z,39.00
2022-12-03T02:23:32.455Z,37.25
2022-12-03T02:24:10.636Z,37.72
2022-12-03T02:24:55.369Z,36.38
2022-12-03T02:25:32.457Z,24.60
2022-12-03T02:26:04.884Z,30.92
2022-12-03T02:26:37.170Z,33.63
2022-12-03T02:27:09.443Z,33.03
2022-12-03T02:27:42.221Z,36.72
2022-12-03T02:28:14.682Z,35.40
2022-12-03T02:28:47.201Z,40.83
2022-12-03T02:29:19.925Z,40.20
2022-12-03T02:29:52.428Z,26.98
2022-12-03T02:30:25.896Z,31.35
2022-12-03T02:30:58.410Z,36.55
2022-12-03T02:31:31.184Z,23.67
2022-12-03T02:32:03.908Z,34.67
2022-12-03T02:32:36.915Z,32.38
2022-12-03T02:33:09.237Z,35.75
2022-12-03T02:33:41.787Z,30.15
2022-12-03T02:34:33.697Z,24.05
2022-12-03T02:35:06.634Z,28.05
2022-12-03T02:35:39.867Z,39.25
2022-12-03T02:36:12.753Z,38.15
2022-12-03T02:36:45.252Z,39.50
2022-12-03T02:37:20.433Z,42.17
2022-12-03T02:37:55.167Z,39.83
2022-12-03T02:38:29.503Z,46.80
2022-12-03T02:39:02.288Z,41.42
2022-12-03T02:39:35.598Z,53.08
2022-12-03T02:40:10.400Z,48.83
2022-12-03T02:40:43.681Z,41.92
2022-12-03T02:41:37.192Z,35.70
2022-12-03T02:42:29.219Z,38.85
2022-12-03T02:43:02.746Z,39.45
2022-12-03T02:43:35.148Z,37.90
2022-12-03T02:44:08.454Z,35.38
2022-12-03T02:44:40.885Z,40.75
2022-12-03T02:45:18.432Z,36.70
2022-12-03T02:45:52.472Z,42.80
2022-12-03T02:46:24.957Z,40.45
2022-12-03T02:46:57.515Z,30.23
2022-12-03T02:47:31.155Z,33.70
2022-12-03T02:48:08.757Z,37.58
2022-12-03T02:48:42.013Z,33.17
2022-12-03T02:49:14.676Z,34.50
2022-12-03T02:49:47.083Z,37.70
2022-12-03T02:50:22.078Z,31.88
2022-12-03T02:50:59.499Z,38.17
2022-12-03T02:51:32.993Z,33.38
2022-12-03T02:52:05.474Z,34.55
2022-12-03T02:52:38.133Z,32.92
2022-12-03T02:53:14.350Z,29.90
2022-12-03T02:53:48.459Z,32.13
2022-12-03T02:54:22.181Z,32.97
2022-12-03T02:54:54.808Z,23.75
2022-12-03T02:55:31.968Z,33.05
2022-12-03T02:56:09.137Z,33.85
2022-12-03T02:56:41.470Z,25.55
2022-12-03T02:57:13.727Z,24.33
2022-12-03T02:57:48.491Z,20.70
2022-12-03T02:58:21.046Z,34.90
2022-12-03T02:58:55.301Z,31.83
2022-12-03T02:59:27.666Z,35.03
2022-12-03T03:00:00.193Z,30.75
2022-12-03T03:00:33.078Z,36.35
2022-12-03T03:01:05.996Z,39.42
2022-12-03T03:01:38.705Z,25.40
2022-12-03T03:02:12.585Z,28.50
2022-12-03T03:02:45.693Z,36.42
2022-12-03T03:03:18.656Z,37.33
2022-12-03T03:03:51.445Z,39.35
2022-12-03T03:04:25.226Z,34.33
2022-12-03T03:04:57.685Z,33.58
2022-12-03T03:05:30.084Z,30.95
2022-12-03T03:06:03.154Z,30.52
2022-12-03T03:06:35.730Z,34.53
2022-12-03T03:07:08.590Z,36.92
2022-12-03T03:07:41.870Z,32.17
2022-12-03T03:08:14.914Z,36.30
2022-12-03T03:08:48.414Z,31.27
2022-12-03T03:09:20.914Z,35.45
2022-12-03T03:09:53.288Z,36.47
2022-12-03T03:10:25.791Z,25.50
2022-12-03T03:11:00.073Z,31.02
2022-12-03T03:11:32.426Z,30.08
2022-12-03T03:12:05.192Z,36.47
2022-12-03T03:12:39.452Z,35.40
2022-12-03T03:13:13.483Z,31.83
2022-12-03T03:13:46.132Z,29.27
2022-12-03T03:14:18.444Z,23.45
2022-12-03T03:14:51.064Z,33.78
2022-12-03T03:15:25.723Z,30.30
2022-12-03T03:15:58.494Z,32.83
2022-12-03T03:16:30.993Z,32.17
2022-12-03T03:17:03.924Z,34.63
2022-12-03T03:17:36.466Z,36.03
2022-12-03T03:18:09.603Z,27.98
2022-12-03T03:18:42.256Z,37.47
2022-12-03T03:19:14.707Z,33.35
2022-12-03T03:19:46.971Z,33.30
2022-12-03T03:20:19.343Z,29.25
2022-12-03T03:20:51.822Z,33.47
2022-12-03T03:21:24.067Z,25.95
2022-12-03T03:21:57.529Z,31.50
2022-12-03T03:22:32.243Z,33.47
2022-12-03T03:23:13.859Z,26.52
2022-12-03T03:23:46.306Z,29.98
2022-12-03T03:24:18.766Z,33.92
2022-12-03T03:24:53.074Z,24.75
2022-12-03T03:25:25.691Z,29.85
2022-12-03T03:26:05.782Z,33.75
2022-12-03T03:26:38.286Z,26.45
2022-12-03T03:27:10.936Z,32.50
2022-12-03T03:27:43.621Z,35.00
2022-12-03T03:28:16.757Z,32.30
2022-12-03T03:28:50.061Z,35.17
2022-12-03T03:29:22.753Z,28.80
2022-12-03T03:29:55.552Z,30.88
2022-12-03T03:30:28.167Z,31.45
2022-12-03T03:31:02.032Z,30.55
2022-12-03T03:31:35.577Z,29.58
2022-12-03T03:32:07.981Z,29.00
2022-12-03T03:32:41.016Z,24.25
2022-12-03T03:33:13.831Z,24.25
2022-12-03T03:33:47.205Z,33.15
2022-12-03T03:34:20.456Z,29.20
2022-12-03T03:34:53.276Z,20.48
2022-12-03T03:35:26.200Z,29.27
2022-12-03T03:36:00.702Z,33.53
2022-12-03T03:36:33.231Z,29.13
2022-12-03T03:37:05.558Z,26.52
2022-12-03T03:37:38.421Z,35.78
2022-12-03T03:38:11.048Z,27.33
2022-12-03T03:38:43.310Z,27.33
2022-12-03T03:39:15.640Z,33.35
2022-12-03T03:39:48.079Z,31.92
2022-12-03T03:40:21.321Z,32.22
2022-12-03T03:40:53.674Z,29.08
2022-12-03T03:41:26.740Z,32.88
2022-12-03T03:41:59.932Z,28.15
2022-12-03T03:42:32.292Z,25.48
2022-12-03T03:43:05.194Z,29.75
2022-12-03T03:43:38.369Z,32.72
2022-12-03T03:44:10.902Z,33.75
2022-12-03T03:44:43.303Z,36.50
2022-12-03T03:45:15.708Z,32.10
2022-12-03T03:45:48.656Z,28.33
2022-12-03T03:46:21.606Z,31.02
2022-12-03T03:46:54.696Z,34.08
2022-12-03T03:47:27.101Z,32.40
2022-12-03T03:48:00.143Z,27.48
2022-12-03T03:48:34.744Z,32.33
2022-12-03T03:49:07.266Z,34.88
2022-12-03T03:49:39.958Z,26.52
2022-12-03T03:50:12.865Z,33.38
2022-12-03T03:50:45.629Z,31.52
2022-12-03T03:51:19.052Z,28.27
2022-12-03T03:51:51.415Z,35.40
2022-12-03T03:52:23.872Z,34.47
2022-12-03T03:52:56.535Z,30.50
2022-12-03T03:53:29.508Z,36.88
2022-12-03T03:54:03.041Z,36.03
2022-12-03T03:54:35.547Z,36.58
2022-12-03T03:55:08.485Z,33.47
2022-12-03T03:55:41.152Z,29.38
2022-12-03T03:56:14.367Z,34.55
2022-12-03T03:56:46.798Z,29.73
2022-12-03T03:57:19.211Z,27.35
2022-12-03T03:57:51.606Z,31.20
2022-12-03T03:58:23.968Z,33.35
2022-12-03T03:58:56.640Z,30.85
2022-12-03T03:59:29.409Z,31.38
2022-12-03T04:00:01.757Z,30.17
2022-12-03T04:00:38.286Z,30.42
2022-12-03T04:01:12.006Z,23.75
2022-12-03T04:01:44.852Z,28.00
2022-12-03T04:02:21.186Z,29.70
2022-12-03T04:02:54.298Z,29.65
2022-12-03T04:03:27.401Z,30.45
2022-12-03T04:04:02.567Z,17.73
2022-12-03T04:04:36.178Z,27.27
2022-12-03T04:05:11.504Z,22.38
2022-12-03T04:05:45.076Z,19.73
2022-12-03T04:06:17.382Z,24.10
2022-12-03T04:06:49.841Z,24.52
2022-12-03T04:07:22.114Z,24.45
2022-12-03T04:07:54.706Z,25.63
2022-12-03T04:08:26.972Z,21.98
2022-12-03T04:08:59.238Z,28.33
2022-12-03T04:09:31.577Z,29.40
2022-12-03T04:10:23.978Z,28.38
2022-12-03T04:11:31.624Z,22.52
2022-12-03T04:12:22.766Z,23.45
2022-12-03T04:12:58.001Z,19.48
2022-12-03T04:13:30.356Z,24.98
2022-12-03T04:14:02.791Z,22.20
2022-12-03T04:14:35.043Z,25.80
2022-12-03T04:15:08.296Z,18.65
2022-12-03T04:15:40.693Z,24.65
2022-12-03T04:16:13.005Z,24.27
2022-12-03T04:16:45.330Z,26.48
2022-12-03T04:17:17.683Z,23.25
2022-12-03T04:18:09.941Z,20.88
2022-12-03T04:18:44.838Z,20.95
2022-12-03T04:19:17.376Z,19.48
2022-12-03T04:19:49.851Z,18.05
2022-12-03T04:20:22.101Z,21.80
2022-12-03T04:21:14.323Z,23.13
2022-12-03T04:22:05.415Z,22.63
2022-12-03T04:22:40.787Z,24.90
2022-12-03T04:23:13.279Z,23.95
2022-12-03T04:23:45.579Z,23.77
2022-12-03T04:24:17.915Z,25.55
2022-12-03T04:24:50.178Z,16.13
2022-12-03T04:25:41.042Z,25.13
2022-12-03T04:26:32.305Z,20.67
2022-12-03T04:27:22.967Z,21.75
2022-12-03T04:28:13.955Z,22.58
2022-12-03T04:28:51.961Z,15.00
2022-12-03T04:29:24.303Z,24.00
2022-12-03T04:29:56.575Z,23.90
2022-12-03T04:30:29.290Z,21.48
2022-12-03T04:31:21.746Z,19.02
2022-12-03T04:32:12.889Z,46.63
2022-12-03T04:33:03.919Z,80.25
2022-12-03T04:33:54.666Z,42.80
2022-12-03T04:34:45.420Z,30.73
2022-12-03T04:35:36.403Z,19.63
2022-12-03T04:36:08.948Z,19.77
2022-12-03T04:36:41.261Z,32.45
2022-12-03T04:37:13.522Z,24.85
2022-12-03T04:37:45.766Z,21.15
2022-12-03T04:38:19.413Z,25.92
2022-12-03T04:38:51.631Z,20.00
2022-12-03T04:39:23.945Z,23.13
2022-12-03T04:39:56.253Z,15.20
2022-12-03T04:40:47.425Z,21.88
2022-12-03T04:41:19.838Z,15.68
2022-12-03T04:41:52.120Z,30.95
2022-12-03T04:42:24.468Z,31.17
2022-12-03T04:42:56.915Z,29.70
2022-12-03T04:43:29.874Z,41.90
2022-12-03T04:44:20.610Z,45.75
2022-12-03T04:44:53.224Z,32.35
2022-12-03T04:45:25.677Z,44.50
2022-12-03T04:45:58.173Z,73.57
2022-12-03T04:46:30.756Z,84.45
2022-12-03T04:47:03.248Z,80.97
2022-12-03T04:47:39.905Z,46.63
2022-12-03T04:48:12.400Z,47.08
2022-12-03T04:48:44.863Z,37.00
2022-12-03T04:49:17.165Z,55.30
2022-12-03T04:49:51.355Z,59.67
2022-12-03T04:50:23.820Z,26.60
2022-12-03T04:50:56.166Z,22.40
2022-12-03T04:51:28.601Z,17.55
2022-12-03T04:52:01.146Z,48.50
2022-12-03T04:52:33.386Z,40.65
2022-12-03T04:53:05.759Z,19.50
2022-12-03T04:53:43.260Z,33.10
2022-12-03T04:54:19.052Z,31.98
2022-12-03T04:54:51.703Z,31.83
2022-12-03T04:55:24.288Z,27.63
2022-12-03T04:55:56.659Z,37.10
2022-12-03T04:56:28.980Z,37.00
2022-12-03T04:57:01.439Z,39.67
2022-12-03T04:57:33.638Z,40.25
2022-12-03T04:58:05.941Z,39.47
2022-12-03T04:58:38.299Z,29.02
2022-12-03T04:59:15.784Z,27.38
2022-12-03T04:59:48.767Z,29.52
2022-12-03T05:00:21.287Z,30.30
2022-12-03T05:00:53.658Z,31.88
2022-12-03T05:01:27.385Z,26.50
2022-12-03T05:01:59.921Z,29.80
2022-12-03T05:02:32.305Z,25.02
2022-12-03T05:03:05.017Z,26.20
2022-12-03T05:03:37.537Z,28.00
2022-12-03T05:04:10.235Z,23.85
2022-12-03T05:04:42.640Z,25.27
2022-12-03T05:05:16.296Z,22.65
2022-12-03T05:05:48.802Z,20.10
2022-12-03T05:06:21.329Z,27.45
2022-12-03T05:06:53.860Z,25.17
2022-12-03T05:07:26.449Z,22.25
2022-12-03T05:07:58.856Z,28.30
2022-12-03T05:08:31.283Z,37.80
2022-12-03T05:09:04.100Z,26.00
2022-12-03T05:09:36.399Z,31.42
2022-12-03T05:10:09.127Z,38.60
2022-12-03T05:10:41.373Z,44.22
2022-12-03T05:11:13.866Z,37.15
2022-12-03T05:11:46.375Z,45.53
2022-12-03T05:12:18.817Z,37.40
2022-12-03T05:12:50.993Z,33.80
2022-12-03T05:13:23.184Z,34.47
2022-12-03T05:13:55.511Z,31.45
2022-12-03T05:14:28.179Z,35.10
2022-12-03T05:15:00.678Z,20.95
2022-12-03T05:15:33.119Z,26.58
2022-12-03T05:16:05.636Z,29.67
2022-12-03T05:16:38.600Z,31.33
2022-12-03T05:17:11.374Z,30.40
2022-12-03T05:17:43.675Z,26.23
2022-12-03T05:18:16.193Z,29.90
2022-12-03T05:18:48.745Z,34.13
2022-12-03T05:19:21.305Z,34.20
2022-12-03T05:20:28.346Z,40.60
2022-12-03T05:21:01.100Z,24.02
2022-12-03T05:21:33.823Z,36.97
2022-12-03T05:22:06.177Z,28.20
2022-12-03T05:22:38.694Z,29.38
2022-12-03T05:23:12.289Z,29.08
2022-12-03T05:23:44.812Z,32.63
2022-12-03T05:24:17.527Z,30.38
2022-12-03T05:24:50.088Z,28.42
2022-12-03T05:25:22.422Z,26.25
2022-12-03T05:25:55.040Z,24.83
2022-12-03T05:26:27.477Z,29.33
2022-12-03T05:27:00.162Z,26.77
2022-12-03T05:27:32.490Z,30.05
2022-12-03T05:28:04.979Z,28.58
2022-12-03T05:28:37.461Z,29.30
2022-12-03T05:29:09.924Z,36.63
2022-12-03T05:29:42.626Z,23.75
2022-12-03T05:30:15.323Z,38.22
2022-12-03T05:30:47.867Z,32.67
2022-12-03T05:31:20.414Z,42.97
2022-12-03T05:31:52.939Z,43.97
2022-12-03T05:32:25.446Z,35.28
2022-12-03T05:32:57.996Z,44.85
2022-12-03T05:33:30.428Z,31.63
2022-12-03T05:34:02.796Z,29.35
2022-12-03T05:34:35.372Z,25.05
2022-12-03T05:35:07.853Z,35.25
2022-12-03T05:35:40.325Z,22.15
2022-12-03T05:36:12.831Z,27.65
2022-12-03T05:36:45.296Z,31.63
2022-12-03T05:37:17.589Z,25.80
2022-12-03T05:37:49.838Z,36.47
2022-12-03T05:38:22.148Z,29.65
2022-12-03T05:38:54.447Z,31.33
2022-12-03T05:39:26.838Z,30.55
2022-12-03T05:39:59.114Z,27.80
2022-12-03T05:40:31.355Z,27.48
2022-12-03T05:41:23.640Z,36.50
2022-12-03T05:42:35.043Z,34.97
2022-12-03T05:43:07.518Z,28.58
2022-12-03T05:43:40.117Z,26.45
2022-12-03T05:44:17.395Z,24.45
2022-12-03T05:44:53.003Z,26.83
2022-12-03T05:45:27.141Z,22.35
2022-12-03T05:45:59.560Z,32.85
2022-12-03T05:46:33.108Z,30.65
2022-12-03T05:47:05.494Z,40.38
2022-12-03T05:47:38.269Z,31.52
2022-12-03T05:48:11.931Z,37.17
2022-12-03T05:48:44.584Z,22.60
2022-12-03T05:49:17.019Z,37.13
2022-12-03T05:49:49.523Z,34.40
2022-12-03T05:50:23.296Z,30.42
2022-12-03T05:50:55.681Z,40.75
2022-12-03T05:51:27.901Z,47.72
2022-12-03T05:52:02.645Z,44.13
2022-12-03T05:52:34.888Z,52.55
2022-12-03T05:53:07.280Z,46.33
2022-12-03T05:53:39.505Z,37.20
2022-12-03T05:54:11.811Z,33.88
2022-12-03T05:54:44.122Z,27.90
2022-12-03T05:55:16.571Z,32.30
2022-12-03T05:55:48.753Z,32.20
2022-12-03T05:56:21.058Z,34.13
2022-12-03T05:56:53.638Z,31.10
2022-12-03T05:57:26.408Z,40.88
2022-12-03T05:57:58.769Z,52.97
2022-12-03T05:58:31.031Z,30.08
2022-12-03T05:59:03.565Z,38.15
2022-12-03T05:59:36.298Z,44.92
2022-12-03T06:00:12.861Z,69.43
2022-12-03T06:00:45.139Z,54.65
2022-12-03T06:01:18.074Z,54.60
2022-12-03T06:01:51.148Z,75.32
2022-12-03T06:02:23.669Z,59.72
2022-12-03T06:02:56.621Z,55.55
2022-12-03T06:03:29.343Z,41.78
2022-12-03T06:04:01.928Z,34.65
2022-12-03T06:04:34.230Z,42.42
2022-12-03T06:05:07.264Z,28.60
2022-12-03T06:05:39.843Z,33.70
2022-12-03T06:06:12.271Z,36.63
2022-12-03T06:06:44.597Z,34.88
2022-12-03T06:07:17.960Z,37.35
2022-12-03T06:07:51.357Z,37.95
2022-12-03T06:08:23.915Z,34.63
2022-12-03T06:08:56.347Z,48.45
2022-12-03T06:09:28.680Z,43.55
2022-12-03T06:10:00.987Z,59.42
2022-12-03T06:10:33.301Z,50.20
2022-12-03T06:11:05.791Z,36.28
2022-12-03T06:11:38.292Z,39.97
2022-12-03T06:12:10.564Z,37.13
2022-12-03T06:12:42.997Z,34.50
2022-12-03T06:13:15.326Z,38.20
2022-12-03T06:13:47.883Z,40.10
2022-12-03T06:14:21.010Z,38.72
2022-12-03T06:14:55.348Z,34.83
2022-12-03T06:15:28.086Z,30.80
2022-12-03T06:16:00.473Z,29.42
2022-12-03T06:16:33.833Z,29.35
2022-12-03T06:17:06.151Z,31.70
2022-12-03T06:17:38.728Z,35.30
2022-12-03T06:18:11.299Z,31.60
2022-12-03T06:18:43.605Z,35.60
2022-12-03T06:19:15.890Z,26.50
2022-12-03T06:19:48.147Z,25.08
2022-12-03T06:20:20.688Z,29.08
2022-12-03T06:20:52.961Z,27.70
2022-12-03T06:21:25.258Z,27.30
2022-12-03T06:21:57.615Z,33.40
2022-12-03T06:22:30.459Z,25.00
2022-12-03T06:23:03.167Z,25.42
2022-12-03T06:23:36.485Z,23.60
2022-12-03T06:24:08.966Z,28.92
2022-12-03T06:24:41.201Z,28.58
2022-12-03T06:25:13.807Z,27.65
2022-12-03T06:25:46.222Z,32.28
2022-12-03T06:26:18.964Z,22.02
2022-12-03T06:26:51.338Z,32.72
2022-12-03T06:27:24.103Z,22.08
2022-12-03T06:27:56.414Z,30.15
2022-12-03T06:28:28.838Z,31.73
2022-12-03T06:29:01.093Z,30.92
2022-12-03T06:29:33.508Z,32.63
2022-12-03T06:30:06.490Z,36.00
2022-12-03T06:30:38.684Z,28.60
2022-12-03T06:31:10.998Z,38.60
2022-12-03T06:31:43.350Z,33.10
2022-12-03T06:32:15.622Z,35.47
2022-12-03T06:32:47.997Z,39.13
2022-12-03T06:33:20.450Z,27.45
2022-12-03T06:33:52.739Z,24.92
2022-12-03T06:34:25.197Z,31.27
2022-12-03T06:34:57.543Z,38.95
2022-12-03T06:35:29.987Z,34.72
2022-12-03T06:36:02.237Z,28.58
2022-12-03T06:36:34.690Z,30.38
2022-12-03T06:37:07.080Z,33.20
2022-12-03T06:37:39.578Z,25.77
2022-12-03T06:38:11.884Z,30.02
2022-12-03T06:38:44.169Z,23.17
2022-12-03T06:39:16.843Z,30.85
2022-12-03T06:39:49.030Z,23.00
2022-12-03T06:40:21.267Z,30.05
2022-12-03T06:40:53.490Z,21.30
2022-12-03T06:41:25.787Z,26.77
2022-12-03T06:41:57.985Z,32.38
2022-12-03T06:42:30.231Z,27.90
2022-12-03T06:43:02.402Z,27.75
2022-12-03T06:43:35.491Z,28.38
2022-12-03T06:44:07.685Z,27.63
2022-12-03T06:44:39.942Z,25.50
2022-12-03T06:45:12.405Z,27.13
2022-12-03T06:45:47.877Z,31.88
2022-12-03T06:46:20.607Z,31.48
2022-12-03T06:46:53.289Z,28.70
2022-12-03T06:47:25.633Z,28.73
2022-12-03T06:47:58.225Z,31.70
2022-12-03T06:48:30.558Z,32.83
2022-12-03T06:49:03.198Z,30.98
2022-12-03T06:49:35.651Z,29.33
2022-12-03T06:50:08.720Z,27.77
2022-12-03T06:50:41.033Z,22.88
2022-12-03T06:51:13.596Z,27.67
2022-12-03T06:51:45.904Z,34.78
2022-12-03T06:52:18.151Z,27.98
2022-12-03T06:52:50.465Z,28.40
2022-12-03T06:53:22.935Z,29.60
2022-12-03T06:53:55.410Z,23.70
2022-12-03T06:54:27.775Z,32.03
2022-12-03T06:55:00.286Z,27.17
2022-12-03T06:55:32.568Z,25.67
2022-12-03T06:56:05.024Z,34.17
2022-12-03T06:56:43.594Z,28.20
2022-12-03T06:57:17.841Z,23.13
2022-12-03T06:57:50.170Z,27.20
2022-12-03T06:58:22.567Z,27.65
2022-12-03T06:58:54.778Z,30.42
2022-12-03T06:59:26.977Z,26.25
2022-12-03T06:59:59.704Z,27.42
2022-12-03T07:00:31.963Z,32.05
2022-12-03T07:01:04.179Z,36.80
2022-12-03T07:01:36.456Z,31.95
2022-12-03T07:02:09.587Z,36.63
2022-12-03T07:02:42.076Z,31.70
2022-12-03T07:03:14.365Z,34.53
2022-12-03T07:03:46.737Z,36.85
2022-12-03T07:04:19.500Z,31.77
2022-12-03T07:04:51.782Z,33.33
2022-12-03T07:05:24.206Z,36.15
2022-12-03T07:05:56.461Z,36.47
2022-12-03T07:06:29.398Z,31.08
2022-12-03T07:07:01.914Z,38.28
2022-12-03T07:07:34.418Z,36.83
2022-12-03T07:08:06.925Z,28.02
2022-12-03T07:08:39.300Z,31.52
2022-12-03T07:09:11.491Z,38.88
2022-12-03T07:09:43.772Z,39.13
2022-12-03T07:10:16.000Z,35.78
2022-12-03T07:10:48.307Z,35.67
2022-12-03T07:11:32.786Z,42.55
2022-12-03T07:12:05.351Z,30.15
2022-12-03T07:12:38.077Z,26.25
2022-12-03T07:13:10.549Z,32.58
2022-12-03T07:13:42.858Z,26.50
2022-12-03T07:14:15.262Z,30.08
2022-12-03T07:14:47.582Z,28.30
2022-12-03T07:15:19.845Z,29.50